Station: Macquarie Island  

  Atmospheric Gas Attenuation - ITU Rec 676-11   ----------------- dB/100km -----------------
Date Time Temp RH % AH g/m3 Dew Point Wind Direction Speed kph Gust kph Barometer mB Rainfall Since 9am 24GHz 47GHz 76GHz 122GHz 134GHz 241GHz
07/05 14:30 3.7 89 5.55 2.1 37 43 989.4 0.8 13.4 22.8 31.0 81.4 67.2 228.0
07/05 14:20 3.6 89 5.51 2 39 43 989.5 0.8 13.4 22.8 30.9 81.1 66.7 226.5
07/05 14:10 4.2 90 5.8 2.7 43 46 989.3 0.8 14.0 23.1 31.8 83.5 70.0 238.1
07/05 14:00 4 90 5.73 2.5 37 41 989.4 0.8 13.8 23.0 31.7 83.0 69.3 235.5
07/05 13:50 4.1 90 5.77 2.6 37 39 989.6 0.8 13.9 23.1 31.8 83.3 69.7 237.1
07/05 13:40 4.2 88 5.67 2.4 44 48 989.6 0.4 13.7 22.9 31.3 82.1 68.3 232.1
07/05 13:30 4 89 5.66 2.4 46 52 989.7 0.4 13.7 22.9 31.4 82.3 68.4 232.3
07/05 13:20 4 90 5.73 2.5 48 54 989.8 0.4 13.8 23.1 31.7 83.0 69.3 235.5
07/05 13:10 3.9 89 5.63 2.3 52 59 989.8 0.4 13.6 22.9 31.3 82.1 68.1 231.2
07/05 13:00 5.4 82 5.73 2.6 43 57 989.7 0.2 13.8 22.7 31.1 81.5 68.1 231.4
07/05 12:50 5.4 79 5.52 2.1 44 50 989.8 0 13.3 22.4 30.3 79.3 65.3 221.8
07/05 12:40 5.6 79 5.59 2.3 39 46 990 0 13.5 22.4 30.5 79.9 66.1 224.5
07/05 12:30 5.8 76 5.45 1.9 46 52 990 0 13.2 22.2 29.9 78.2 64.1 217.6
07/05 12:20 5.9 76 5.48 2 39 48 990.2 0 13.2 22.2 30.0 78.5 64.4 218.7
07/05 12:10 6 74 5.37 1.7 52 57 990.3 0 13.0 22.0 29.5 77.2 63.0 213.6
07/05 12:00 6.1 69 5.04 0.9 39 46 990.5 0 12.3 21.5 28.2 73.8 58.7 198.7
07/05 11:50 6.4 70 5.22 1.3 43 48 990.7 0 12.6 21.7 28.8 75.4 60.8 205.9
07/05 11:40 6.3 68 5.04 0.8 41 52 990.9 0 12.3 21.4 28.2 73.6 58.6 198.3
07/05 11:30 6.3 71 5.26 1.4 37 48 991.1 0 12.7 21.8 29.0 75.9 61.4 208.0
07/05 11:20 6.2 73 5.37 1.7 37 46 991.2 0 13.0 22.0 29.5 77.1 62.9 213.2
07/05 11:10 6.4 74 5.52 2.1 37 43 991.4 0 13.3 22.2 30.0 78.5 64.6 219.4
07/05 11:00 6.2 72 5.3 1.5 41 50 991.6 0 12.8 21.9 29.2 76.4 62.0 210.2
07/05 10:50 6.1 71 5.19 1.2 46 50 991.8 0 12.6 21.8 28.8 75.4 60.7 205.6
07/05 10:40 6.1 75 5.48 2 44 48 992 0 13.2 22.2 30.0 78.4 64.4 218.5
07/05 10:30 6.1 74 5.41 1.8 39 44 992.1 0 13.1 22.1 29.7 77.7 63.5 215.4
07/05 10:20 6 72 5.23 1.3 33 43 992.2 0 12.7 21.9 29.0 76.0 61.3 207.7
07/05 10:10 5.8 71 5.09 1 39 44 992.4 0 12.4 21.7 28.6 74.8 59.7 202.0
07/05 10:00 5.5 78 5.48 2 39 44 992.5 0 13.2 22.4 30.2 79.1 64.9 220.3
07/05 09:50 5.6 80 5.66 2.4 35 41 992.6 0 13.6 22.6 30.9 80.9 67.1 228.2
07/05 09:40 5.6 79 5.59 2.3 48 56 992.7 0 13.5 22.5 30.6 80.1 66.3 225.0
07/05 09:30 5.2 79 5.44 1.9 32 35 993 0 13.2 22.4 30.2 79.0 64.7 219.4
07/05 09:20 4.9 83 5.61 2.3 28 32 993.2 0 13.5 22.8 31.0 81.1 67.1 228.0
07/05 09:10 4.7 83 5.53 2.1 32 33 993.3 0 13.4 22.7 30.7 80.5 66.3 225.0
07/05 09:00 4.3 86 5.58 2.2 32 35 993.4 0 13.5 22.9 31.1 81.4 67.3 228.4
07/05 08:50 4.4 86 5.62 2.3 35 39 993.6 4.8 13.6 22.9 31.2 81.8 67.7 230.0
07/05 08:40 5 80 5.44 1.8 50 56 993.3 4.8 13.2 22.5 30.3 79.2 64.9 220.0
07/05 08:30 5.4 76 5.31 1.5 37 44 993.3 4.8 12.9 22.2 29.6 77.5 62.9 213.1
07/05 08:20 5.3 78 5.41 1.8 35 41 993.4 4.8 13.1 22.4 30.0 78.6 64.2 217.9
07/05 08:10 5.1 76 5.2 1.2 37 56 993.5 4.8 12.6 22.1 29.3 76.7 61.7 209.0
07/05 08:00 5.3 73 5.06 0.9 37 44 993.6 4.8 12.3 21.8 28.7 75.0 59.8 202.2
07/05 07:50 5.2 76 5.24 1.3 37 43 993.7 4.8 12.7 22.1 29.4 77.0 62.1 210.5
07/05 07:40 5.2 74 5.1 1 37 43 993.8 4.8 12.4 21.9 28.9 75.6 60.4 204.3
07/05 07:30 5.3 73 5.06 0.9 41 48 993.8 4.8 12.3 21.8 28.7 75.0 59.8 202.2
07/05 07:20 5.1 72 4.93 0.5 44 48 993.7 4.8 12.1 21.7 28.3 73.9 58.3 197.0
07/05 07:10 5.1 74 5.07 0.9 44 50 993.8 4.8 12.4 21.9 28.8 75.3 60.1 203.2
07/05 07:00 5.1 79 5.41 1.8 41 52 993.7 4.8 13.1 22.4 30.1 78.9 64.4 218.5
07/05 06:50 5.3 78 5.41 1.8 39 44 993.6 4.8 13.1 22.4 30.1 78.6 64.2 217.9
07/05 06:40 5.2 77 5.31 1.5 39 46 993.6 4.8 12.9 22.2 29.7 77.7 63.0 213.7
07/05 06:30 5.1 78 5.34 1.6 39 50 993.8 4.8 12.9 22.3 29.9 78.1 63.5 215.3
07/05 06:20 5.3 76 5.27 1.4 39 43 993.9 4.8 12.8 22.2 29.5 77.2 62.5 211.6
07/05 06:10 5.4 75 5.24 1.3 44 50 993.6 4.8 12.7 22.1 29.4 76.8 62.0 210.0
07/05 06:00 5.3 79 5.48 2 43 52 993.5 4.8 13.2 22.5 30.3 79.4 65.1 221.0
07/05 05:50 5.3 79 5.48 2 48 54 993.6 4.8 13.2 22.5 30.3 79.4 65.1 221.1
07/05 05:40 5.3 78 5.41 1.8 41 50 993.5 4.8 13.1 22.4 30.0 78.6 64.2 217.9
07/05 05:30 5.1 77 5.27 1.4 46 61 993.4 4.8 12.8 22.2 29.6 77.4 62.6 212.1
07/05 05:20 5.3 78 5.41 1.8 46 57 993.6 4.8 13.1 22.4 30.1 78.6 64.2 217.9
07/05 05:10 5.2 79 5.44 1.9 50 69 993.3 4.8 13.2 22.4 30.2 79.0 64.7 219.5
07/05 05:00 5.4 78 5.45 1.9 52 65 993.1 4.8 13.2 22.4 30.2 78.9 64.6 219.3
07/05 04:50 5.4 78 5.45 1.9 54 59 993.1 4.8 13.2 22.4 30.2 78.9 64.6 219.3
07/05 04:40 5.4 78 5.45 1.9 54 63 993 4.8 13.2 22.4 30.1 78.9 64.6 219.3
07/05 04:30 5.4 79 5.52 2.1 54 67 993.1 4.8 13.3 22.5 30.4 79.6 65.5 222.5
07/05 04:20 5.5 78 5.48 2 57 65 993.1 4.8 13.2 22.4 30.2 79.1 64.9 220.4
07/05 04:10 5.4 80 5.59 2.2 56 65 993 4.8 13.5 22.6 30.7 80.4 66.4 225.6
07/05 04:00 5.3 80 5.55 2.1 57 67 993.1 4.8 13.4 22.6 30.6 80.1 66.0 224.1
07/05 03:50 5.3 80 5.55 2.1 56 63 993.1 4.8 13.4 22.6 30.6 80.1 66.0 224.1
07/05 03:40 5.4 79 5.52 2.1 63 67 993 4.8 13.3 22.5 30.4 79.6 65.5 222.5
07/05 03:30 5.5 78 5.48 2 57 70 993 4.8 13.2 22.4 30.2 79.1 64.9 220.4
07/05 03:20 5.5 75 5.27 1.4 57 69 993 4.8 12.8 22.1 29.4 76.9 62.2 210.9
07/05 03:10 5.5 77 5.41 1.8 61 70 992.9 4.8 13.1 22.3 29.9 78.4 64.0 217.2
07/05 03:00 5.5 78 5.48 2 57 76 992.9 4.8 13.2 22.4 30.2 79.1 64.9 220.4
07/05 02:50 5.7 78 5.55 2.2 59 67 992.7 4.8 13.4 22.4 30.4 79.6 65.7 222.9
07/05 02:40 5.5 77 5.41 1.8 56 67 992.5 4.8 13.1 22.3 29.9 78.3 64.0 217.1
07/05 02:30 5.5 74 5.2 1.2 65 80 992.3 4.8 12.6 21.9 29.1 76.2 61.3 207.7
07/05 02:20 5.6 75 5.31 1.5 65 74 992.3 4.8 12.9 22.1 29.5 77.2 62.6 212.3
07/05 02:10 5.7 75 5.34 1.6 67 76 992.2 4.8 12.9 22.1 29.6 77.4 62.9 213.4
07/05 02:00 5.8 76 5.45 1.9 67 80 992.3 4.8 13.2 22.3 30.0 78.4 64.3 218.1
07/05 01:50 6 76 5.52 2.1 61 65 992.2 4.8 13.3 22.3 30.2 79.0 65.0 220.6
07/05 01:40 5.9 77 5.56 2.2 63 72 992.2 4.8 13.4 22.4 30.4 79.5 65.6 222.7
07/05 01:30 5.9 76 5.48 2 65 78 992 4.8 13.2 22.3 30.0 78.6 64.5 219.1
07/05 01:20 6.2 79 5.81 2.8 65 74 991.9 4.8 13.9 22.7 31.2 81.7 68.5 233.1
07/05 01:10 6.4 80 5.96 3.2 59 67 991.9 4.8 14.2 22.9 31.7 83.1 70.3 239.3
07/05 01:00 6.4 79 5.89 3 63 82 991.7 4.8 14.1 22.8 31.4 82.4 69.4 236.1
07/05 00:50 6.7 79 6.01 3.3 57 67 991.7 4.8 14.3 22.9 31.8 83.3 70.6 240.6
07/05 00:40 6.6 78 5.89 3 54 69 991.5 4.8 14.1 22.7 31.3 82.1 69.2 235.4
07/05 00:30 6.6 77 5.82 2.9 61 78 991.3 4.8 13.9 22.6 31.1 81.4 68.3 232.2
07/05 00:20 6.7 73 5.55 2.2 61 69 991.2 4.8 13.3 22.1 30.0 78.5 64.7 219.8
07/05 00:10 6.4 76 5.67 2.5 61 69 991.3 4.8 13.6 22.4 30.6 80.0 66.5 226.1
07/05 00:00 6.5 73 5.48 2 63 74 991.1 4.8 13.2 22.1 29.8 77.9 64.0 217.2
06/05 23:50 6.5 76 5.7 2.6 65 70 991 4.8 13.7 22.4 30.6 80.2 66.8 227.1
06/05 23:40 6.7 80 6.08 3.5 65 72 991 4.8 14.5 23.0 32.0 84.0 71.5 243.6
06/05 23:30 7.1 78 6.09 3.5 56 65 991 4.8 14.5 22.9 31.9 83.6 71.3 242.9
06/05 23:20 7.1 77 6.01 3.3 54 61 990.9 4.8 14.3 22.8 31.6 82.8 70.2 239.2
06/05 23:10 7 81 6.28 4 61 72 990.8 4.8 14.9 23.2 32.7 85.7 73.8 251.8
06/05 23:00 7.1 84 6.55 4.6 43 54 990.8 4.8 15.5 23.6 33.7 88.5 77.3 263.8
06/05 22:50 7.1 83 6.48 4.4 50 56 990.7 4.8 15.3 23.5 33.4 87.7 76.3 260.6
06/05 22:40 7 83 6.43 4.3 56 65 990.6 4.8 15.2 23.4 33.3 87.3 75.8 258.6
06/05 22:30 6.9 83 6.39 4.2 48 54 990.6 4.8 15.1 23.4 33.2 87.0 75.3 257.1
06/05 22:20 7 81 6.28 4 56 61 990.5 4.8 14.9 23.2 32.7 85.7 73.8 251.7
06/05 22:10 6.9 82 6.32 4 56 63 990.4 4.8 15.0 23.3 32.9 86.2 74.4 253.8
06/05 22:00 7 84 6.51 4.5 63 69 990.2 4.8 15.4 23.5 33.6 88.1 76.8 262.2

Last Refresh: 07-May-2026 14:10:28

Bureau of Meteorology